Terminal Aerodrome Forecast
Issued by NWS

Home | Current Version | Previous Version | Graphics & Text | Print | Product List | Glossary On
Versions: 1 2 3 4 5 6 7 8 9 10 11 12 13 14
749
FTUS43 KTOP 151120
TAFMHK
TAF
KMHK 151120Z 1512/1612 02012G18KT P6SM BKN028
     FM151300 35012G19KT P6SM SCT040
     FM160000 34008KT P6SM SCT100=

USA.gov is the U.S. government's official web portal to all federal, state and local government web resources and services.